Time;durP1;ratioP1;P1;durP2;ratioP2;P2;SDS_P1;SDS_P2;PMS_P1;PMS_P2;Temp;Humidity;BMP_temperature;BMP_pressure;BME280_temperature;BME280_humidity;BME280_pressure;Samples;Min_cycle;Max_cycle;Signal;HPM_P1;HPM_P2
2022/06/07 00:02:06;;;;;;;6.57;3.22;;;13.30;99.90;;;;;;4988563;28;20073;-69
2022/06/07 00:04:32;;;;;;;7.00;2.90;;;13.30;99.90;;;;;;4992251;28;20045;-69
2022/06/07 00:06:58;;;;;;;5.97;3.05;;;13.20;99.90;;;;;;5008675;28;20136;-69
2022/06/07 00:09:23;;;;;;;10.82;2.78;;;13.30;99.90;;;;;;5007158;28;20141;-69
2022/06/07 00:11:49;;;;;;;6.30;3.00;;;13.30;99.90;;;;;;5008363;28;20026;-71
2022/06/07 00:14:15;;;;;;;5.40;2.88;;;13.30;99.90;;;;;;5007221;28;20728;-68
2022/06/07 00:16:41;;;;;;;4.78;3.05;;;13.30;99.90;;;;;;5003990;28;20030;-69
2022/06/07 00:19:06;;;;;;;6.43;3.00;;;13.30;99.90;;;;;;5004686;28;20025;-69
2022/06/07 00:21:32;;;;;;;9.55;3.53;;;13.30;99.90;;;;;;5010873;28;20065;-70
2022/06/07 00:24:00;;;;;;;5.47;3.35;;;13.40;99.90;;;;;;5010318;28;20482;-68
2022/06/07 00:26:27;;;;;;;8.52;3.17;;;13.30;99.90;;;;;;5008298;28;20034;-69
2022/06/07 00:28:53;;;;;;;5.93;3.58;;;13.40;99.90;;;;;;4995330;28;20030;-69
2022/06/07 00:31:19;;;;;;;5.47;2.97;;;13.40;99.90;;;;;;4999080;28;20036;-69
2022/06/07 00:33:45;;;;;;;7.03;2.90;;;13.40;99.90;;;;;;4991526;28;20126;-70
2022/06/07 00:36:11;;;;;;;6.82;3.80;;;13.40;99.90;;;;;;4997661;28;20029;-69
2022/06/07 00:38:37;;;;;;;10.73;4.15;;;13.40;99.90;;;;;;5010682;28;20034;-70
2022/06/07 00:41:06;;;;;;;6.10;3.45;;;13.40;99.90;;;;;;5011666;28;20089;-69
2022/06/07 00:43:32;;;;;;;9.45;3.63;;;13.40;99.90;;;;;;5000507;28;20089;-69
2022/06/07 00:45:57;;;;;;;6.80;3.00;;;13.40;99.90;;;;;;4991790;28;20030;-70
2022/06/07 00:48:24;;;;;;;6.70;3.47;;;13.40;99.90;;;;;;4995481;28;20026;-69
2022/06/07 00:51:02;;;;;;;8.82;3.80;;;13.30;99.90;;;;;;4995122;28;20118;-69
2022/06/07 00:53:30;;;;;;;7.47;3.03;;;13.40;99.90;;;;;;4993932;28;20034;-72
2022/06/07 00:55:56;;;;;;;6.93;3.63;;;13.40;99.90;;;;;;5008762;28;20030;-68
2022/06/07 00:58:25;;;;;;;11.00;3.90;;;13.30;99.90;;;;;;4997655;28;20042;-70
2022/06/07 01:00:52;;;;;;;4.97;3.35;;;13.40;99.90;;;;;;5011325;28;20133;-69
2022/06/07 01:03:20;;;;;;;6.53;3.45;;;13.30;99.90;;;;;;4993622;28;20046;-69
2022/06/07 01:05:47;;;;;;;7.88;4.13;;;13.30;99.90;;;;;;4991490;28;20038;-69
2022/06/07 01:10:58;;;;;;;5.40;3.08;;;13.30;99.90;;;;;;5001445;28;20108;-69
2022/06/07 01:13:28;;;;;;;7.25;2.92;;;13.30;99.90;;;;;;4990104;28;20558;-69
2022/06/07 01:16:04;;;;;;;5.60;2.92;;;13.20;99.90;;;;;;4995184;28;20069;-70
2022/06/07 01:18:31;;;;;;;5.35;3.20;;;13.20;99.90;;;;;;5000498;28;20788;-72
2022/06/07 01:21:15;;;;;;;6.15;3.20;;;13.20;99.90;;;;;;5009452;28;20030;-69
2022/06/07 01:23:43;;;;;;;9.98;3.13;;;13.20;99.90;;;;;;4997971;28;20061;-69
2022/06/07 01:26:10;;;;;;;7.30;3.15;;;13.20;99.90;;;;;;5003744;28;20093;-69
2022/06/07 01:28:36;;;;;;;6.57;3.40;;;13.20;99.90;;;;;;5010021;28;20034;-69
2022/06/07 01:31:02;;;;;;;7.65;3.60;;;13.20;99.90;;;;;;5005743;28;20053;-69
2022/06/07 01:33:28;;;;;;;6.93;3.08;;;13.20;99.90;;;;;;5009434;28;20549;-69
2022/06/07 01:36:08;;;;;;;7.15;3.33;;;13.20;99.90;;;;;;5010472;28;20053;-70
2022/06/07 01:38:36;;;;;;;7.85;3.30;;;13.20;99.90;;;;;;4995043;28;20046;-69
2022/06/07 01:43:46;;;;;;;10.93;4.03;;;13.20;99.90;;;;;;4993332;28;20040;-69
2022/06/07 01:46:12;;;;;;;7.18;3.90;;;13.30;99.90;;;;;;5002103;28;20025;-69
2022/06/07 01:48:38;;;;;;;5.35;3.13;;;13.20;99.90;;;;;;4999819;28;20049;-69
2022/06/07 01:51:05;;;;;;;6.82;3.25;;;13.30;99.90;;;;;;5005248;28;20041;-70
2022/06/07 01:53:31;;;;;;;8.05;3.22;;;13.30;99.90;;;;;;5002698;28;20100;-69
2022/06/07 01:56:12;;;;;;;7.45;3.83;;;13.20;99.90;;;;;;4997116;28;20030;-69
2022/06/07 01:58:38;;;;;;;;;;;13.20;99.90;;;;;;4994488;28;20040;-69
2022/06/07 02:01:04;;;;;;;6.22;3.30;;;13.30;99.90;;;;;;5010132;28;19914;-68
2022/06/07 02:03:30;;;;;;;6.72;3.55;;;13.30;99.90;;;;;;5008738;28;20030;-72
2022/06/07 02:05:58;;;;;;;6.70;3.42;;;13.20;99.90;;;;;;5010039;28;20033;-70
2022/06/07 02:08:24;;;;;;;6.55;3.47;;;13.30;99.90;;;;;;5009547;28;20029;-69
2022/06/07 02:10:50;;;;;;;7.20;3.70;;;13.30;99.90;;;;;;5007985;28;20037;-69
2022/06/07 02:13:16;;;;;;;8.45;4.13;;;13.30;99.90;;;;;;4992968;28;20038;-69
2022/06/07 02:15:42;;;;;;;8.57;3.80;;;13.30;99.90;;;;;;4998938;28;20379;-69
2022/06/07 02:18:07;;;;;;;5.93;3.60;;;13.30;99.90;;;;;;4990722;28;20121;-70
2022/06/07 02:20:33;;;;;;;8.05;3.95;;;13.30;99.90;;;;;;4995338;28;20026;-69
2022/06/07 02:22:59;;;;;;;8.73;4.05;;;13.30;99.90;;;;;;5008105;28;20149;-68
2022/06/07 02:25:25;;;;;;;7.50;4.10;;;13.30;99.90;;;;;;5008614;28;20030;-69
2022/06/07 02:27:51;;;;;;;5.78;3.60;;;13.30;99.90;;;;;;5009726;28;20034;-69
2022/06/07 02:30:17;;;;;;;7.72;3.92;;;13.30;99.90;;;;;;5008944;28;20470;-69
2022/06/07 02:32:43;;;;;;;7.93;4.40;;;13.30;99.90;;;;;;5009187;28;20052;-69
2022/06/07 02:35:09;;;;;;;8.35;4.40;;;13.30;99.90;;;;;;5002085;28;20121;-70
2022/06/07 02:37:37;;;;;;;8.60;4.90;;;13.30;99.90;;;;;;4987537;28;20638;-69
2022/06/07 02:40:04;;;;;;;9.45;4.47;;;13.20;99.90;;;;;;4990057;28;20505;-71
2022/06/07 02:42:30;;;;;;;10.57;4.32;;;13.30;99.90;;;;;;4987838;28;20069;-69
2022/06/07 02:44:57;;;;;;;8.13;4.60;;;13.30;99.90;;;;;;4989971;28;20026;-69
2022/06/07 02:47:23;;;;;;;6.93;4.00;;;13.30;99.90;;;;;;4996861;28;20038;-68
2022/06/07 02:49:49;;;;;;;6.38;4.10;;;13.30;99.90;;;;;;4988915;28;20497;-69
2022/06/07 02:52:15;;;;;;;7.10;4.22;;;13.30;99.90;;;;;;4989772;28;20057;-70
2022/06/07 02:54:41;;;;;;;6.95;3.92;;;13.30;99.90;;;;;;4988553;28;20290;-69
2022/06/07 02:57:06;;;;;;;7.50;4.43;;;13.20;99.90;;;;;;4993780;28;20035;-70
2022/06/07 02:59:32;;;;;;;7.95;4.28;;;13.20;99.90;;;;;;4987423;28;20034;-69
2022/06/07 03:01:58;;;;;;;8.70;4.45;;;13.20;99.90;;;;;;5003859;28;20034;-69
2022/06/07 03:04:24;;;;;;;10.63;4.10;;;13.20;99.90;;;;;;5006099;28;20038;-69
2022/06/07 03:06:49;;;;;;;7.00;4.22;;;13.30;99.90;;;;;;5007397;28;20433;-69
2022/06/07 03:09:15;;;;;;;8.00;3.80;;;13.20;99.90;;;;;;5011004;28;20067;-69
2022/06/07 03:11:41;;;;;;;8.98;4.35;;;13.20;99.90;;;;;;4991330;28;20828;-69
2022/06/07 03:14:06;;;;;;;7.80;4.13;;;13.30;99.90;;;;;;4993900;28;20030;-68
2022/06/07 03:16:32;;;;;;;8.05;4.35;;;13.20;99.90;;;;;;5005807;28;20037;-69
2022/06/07 03:18:58;;;;;;;7.55;4.50;;;13.20;99.90;;;;;;4994951;28;20037;-68
2022/06/07 03:21:24;;;;;;;10.60;3.92;;;13.20;99.90;;;;;;5001895;28;20135;-70
2022/06/07 03:23:49;;;;;;;9.75;4.53;;;13.20;99.90;;;;;;5006838;28;20751;-69
2022/06/07 03:26:16;;;;;;;9.40;4.55;;;13.20;99.90;;;;;;5004578;28;20128;-68
2022/06/07 03:28:42;;;;;;;5.82;3.20;;;13.20;99.90;;;;;;4992239;28;20078;-70
2022/06/07 03:31:13;;;;;;;10.27;5.10;;;13.20;99.90;;;;;;5004966;28;20066;-68
2022/06/07 03:33:40;;;;;;;9.25;4.53;;;13.20;99.90;;;;;;5005872;28;20041;-68
2022/06/07 03:36:31;;;;;;;8.43;4.53;;;13.20;99.90;;;;;;4989337;28;20065;-68
2022/06/07 03:38:58;;;;;;;;;;;13.20;99.90;;;;;;4994018;28;20403;-68
2022/06/07 03:41:26;;;;;;;8.25;4.03;;;13.20;99.90;;;;;;4988186;28;19913;-68
2022/06/07 03:43:52;;;;;;;8.15;4.40;;;13.10;99.90;;;;;;4990180;28;20371;-69
2022/06/07 03:46:20;;;;;;;6.88;4.00;;;13.20;99.90;;;;;;5008447;28;20125;-68
2022/06/07 03:48:47;;;;;;;8.10;3.95;;;13.20;99.90;;;;;;5008888;28;20112;-68
2022/06/07 03:51:14;;;;;;;6.18;3.90;;;13.20;99.90;;;;;;5008726;28;20100;-70
2022/06/07 03:53:40;;;;;;;10.85;4.25;;;13.20;99.90;;;;;;4999802;28;20030;-68
2022/06/07 03:56:06;;;;;;;10.18;3.95;;;13.20;99.90;;;;;;5001531;28;20073;-68
2022/06/07 03:58:33;;;;;;;5.82;3.83;;;13.20;99.90;;;;;;4996402;28;20176;-69
2022/06/07 04:01:01;;;;;;;7.85;4.22;;;13.20;99.90;;;;;;4999093;28;20149;-69
2022/06/07 04:03:27;;;;;;;7.75;3.67;;;13.30;99.90;;;;;;4987419;28;20437;-69
2022/06/07 04:05:53;;;;;;;7.80;4.18;;;13.30;99.90;;;;;;4991718;28;20022;-68
2022/06/07 04:08:19;;;;;;;6.32;3.38;;;13.30;99.90;;;;;;5009308;28;20034;-68
2022/06/07 04:10:50;;;;;;;7.50;3.97;;;13.30;99.90;;;;;;5008904;28;20026;-70
2022/06/07 04:13:18;;;;;;;9.48;4.22;;;13.30;99.90;;;;;;5006018;28;20357;-72
2022/06/07 04:15:44;;;;;;;12.98;4.45;;;13.30;99.90;;;;;;5004307;28;20026;-68
2022/06/07 04:18:10;;;;;;;6.30;3.83;;;13.40;99.90;;;;;;5001474;28;20054;-68
2022/06/07 04:20:36;;;;;;;8.23;4.90;;;13.30;99.90;;;;;;4992647;28;20502;-68
2022/06/07 04:23:02;;;;;;;11.25;4.65;;;13.40;99.90;;;;;;4996261;28;20030;-68
2022/06/07 04:25:29;;;;;;;6.75;3.70;;;13.40;99.90;;;;;;4998623;28;20041;-72
2022/06/07 04:27:55;;;;;;;9.00;4.75;;;13.40;99.90;;;;;;5005529;28;20437;-68
2022/06/07 04:30:20;;;;;;;8.38;4.53;;;13.40;99.90;;;;;;4991823;28;20031;-68
2022/06/07 04:32:47;;;;;;;9.38;4.25;;;13.40;99.90;;;;;;5000748;28;20057;-69
2022/06/07 04:35:18;;;;;;;8.77;4.07;;;13.40;99.90;;;;;;4999113;28;20410;-67
2022/06/07 04:37:46;;;;;;;10.52;4.13;;;13.50;99.90;;;;;;4991095;28;20463;-68
2022/06/07 04:40:12;;;;;;;7.57;4.28;;;13.50;99.90;;;;;;4995678;28;20445;-69
2022/06/07 04:42:37;;;;;;;9.45;4.53;;;13.50;99.90;;;;;;4998644;28;20038;-68
2022/06/07 04:45:04;;;;;;;8.10;4.18;;;13.50;99.90;;;;;;5010304;28;20041;-69
2022/06/07 04:47:30;;;;;;;8.75;3.92;;;13.50;99.90;;;;;;5012970;28;20028;-70
2022/06/07 04:49:56;;;;;;;9.90;5.03;;;13.60;99.90;;;;;;5012291;28;20081;-70
2022/06/07 04:52:21;;;;;;;9.45;4.47;;;13.60;99.90;;;;;;5015010;28;20026;-73
2022/06/07 04:54:47;;;;;;;9.30;4.10;;;13.60;99.90;;;;;;5010116;28;20046;-73
2022/06/07 04:57:12;;;;;;;8.40;4.45;;;13.70;99.90;;;;;;5011396;28;20546;-70
2022/06/07 04:59:38;;;;;;;7.68;3.92;;;13.70;99.90;;;;;;5011387;28;20044;-72
2022/06/07 05:02:04;;;;;;;8.98;4.63;;;13.70;99.90;;;;;;5010637;28;20061;-70
2022/06/07 05:04:30;;;;;;;7.20;4.30;;;13.80;99.90;;;;;;4996895;28;20577;-71
2022/06/07 05:06:55;;;;;;;6.85;4.28;;;13.80;99.90;;;;;;4995934;28;20145;-68
2022/06/07 05:09:22;;;;;;;7.82;4.28;;;13.90;99.90;;;;;;4994139;28;20153;-69
2022/06/07 05:11:50;;;;;;;7.03;4.07;;;13.90;99.90;;;;;;4992557;28;20045;-72
2022/06/07 05:14:16;;;;;;;9.20;4.07;;;14.00;99.90;;;;;;4996360;28;20046;-69
2022/06/07 05:16:42;;;;;;;9.73;4.15;;;14.00;99.90;;;;;;4994325;28;20124;-70
2022/06/07 05:19:10;;;;;;;7.03;3.78;;;14.20;99.90;;;;;;4994669;28;20557;-72
2022/06/07 05:21:36;;;;;;;5.90;3.45;;;14.30;99.90;;;;;;4992713;28;20029;-72
2022/06/07 05:24:02;;;;;;;6.55;3.67;;;14.30;99.90;;;;;;4994731;28;20053;-69
2022/06/07 05:26:40;;;;;;;9.25;4.22;;;14.30;99.90;;;;;;4992458;28;20038;-70
2022/06/07 05:29:11;;;;;;;6.35;4.00;;;14.40;99.90;;;;;;4987436;28;20142;-68
2022/06/07 05:31:36;;;;;;;8.50;3.83;;;14.50;99.90;;;;;;4993627;28;20406;-68
2022/06/07 05:34:02;;;;;;;6.88;3.95;;;14.50;99.90;;;;;;4996336;28;20033;-70
2022/06/07 05:36:28;;;;;;;9.25;4.10;;;14.60;99.90;;;;;;4991482;28;20402;-72
2022/06/07 05:38:54;;;;;;;8.30;3.50;;;14.70;99.90;;;;;;4995017;28;20034;-68
2022/06/07 05:41:24;;;;;;;4.90;3.33;;;14.80;99.90;;;;;;4994881;28;20045;-70
2022/06/07 05:43:50;;;;;;;6.53;3.67;;;14.90;99.90;;;;;;4993599;28;20030;-69
2022/06/07 05:46:16;;;;;;;8.75;3.60;;;15.10;99.90;;;;;;4994954;28;20042;-69
2022/06/07 05:48:41;;;;;;;6.70;3.72;;;15.20;99.90;;;;;;4993237;28;20487;-69
2022/06/07 05:51:07;;;;;;;7.90;3.47;;;15.30;99.90;;;;;;4992370;28;20080;-69
2022/06/07 05:53:34;;;;;;;7.93;3.28;;;15.60;99.90;;;;;;4989758;28;20038;-70
2022/06/07 05:56:12;;;;;;;7.32;3.20;;;15.80;99.90;;;;;;4996838;28;20104;-69
2022/06/07 05:58:38;;;;;;;6.63;3.20;;;15.90;99.90;;;;;;4989193;28;20485;-70
2022/06/07 06:01:07;;;;;;;5.75;2.95;;;15.90;99.90;;;;;;4991503;28;20109;-69
2022/06/07 06:03:32;;;;;;;5.80;2.88;;;15.90;99.90;;;;;;4991626;28;20120;-70
2022/06/07 06:05:58;;;;;;;8.25;3.47;;;15.90;99.90;;;;;;4995177;28;20077;-69
2022/06/07 06:11:10;;;;;;;6.85;2.88;;;15.80;99.90;;;;;;4989689;28;20045;-69
2022/06/07 06:13:36;;;;;;;5.50;2.85;;;15.80;99.90;;;;;;4993161;28;20117;-70
2022/06/07 06:16:09;;;;;;;11.18;3.65;;;15.80;99.90;;;;;;4993218;28;20034;-69
2022/06/07 06:18:39;;;;;;;6.38;2.72;;;15.80;99.90;;;;;;4990274;28;20124;-69
2022/06/07 06:21:06;;;;;;;7.10;3.03;;;15.80;99.90;;;;;;4992391;28;20087;-69
2022/06/07 06:23:32;;;;;;;11.40;3.80;;;15.80;99.90;;;;;;4994059;28;20525;-69
2022/06/07 06:25:58;;;;;;;5.40;2.55;;;16.00;99.90;;;;;;4988349;28;20038;-69
2022/06/07 06:28:25;;;;;;;5.40;2.17;;;16.30;99.90;;;;;;4991525;28;20038;-69
2022/06/07 06:30:53;;;;;;;5.13;2.58;;;16.70;99.90;;;;;;4995389;28;20052;-69
2022/06/07 06:33:19;;;;;;;6.35;3.22;;;16.90;99.90;;;;;;4994287;28;20026;-70
2022/06/07 06:35:52;;;;;;;5.85;3.03;;;16.90;99.90;;;;;;4990362;28;20076;-69
2022/06/07 06:38:19;;;;;;;4.32;2.80;;;16.80;99.90;;;;;;4993142;28;20537;-70
2022/06/07 06:40:45;;;;;;;5.72;2.75;;;16.70;99.90;;;;;;4990411;28;20534;-69
2022/06/07 06:43:12;;;;;;;4.72;2.35;;;16.60;99.90;;;;;;4992387;28;20037;-69
2022/06/07 06:45:39;;;;;;;8.68;2.85;;;16.60;99.90;;;;;;4988716;28;20506;-69
2022/06/07 06:48:06;;;;;;;7.63;3.17;;;16.50;99.90;;;;;;4994408;28;20519;-69
2022/06/07 06:50:32;;;;;;;3.97;2.03;;;16.50;99.90;;;;;;4987479;28;20627;-69
2022/06/07 06:52:57;;;;;;;6.78;2.85;;;16.60;99.90;;;;;;4987826;28;20030;-69
2022/06/07 06:55:23;;;;;;;5.63;2.35;;;16.80;99.90;;;;;;4993160;28;20037;-70
2022/06/07 06:57:49;;;;;;;4.10;2.38;;;16.90;99.90;;;;;;4991442;28;20038;-69
2022/06/07 07:00:15;;;;;;;4.65;2.28;;;17.10;99.90;;;;;;4987613;28;20042;-70
2022/06/07 07:02:41;;;;;;;5.75;2.47;;;17.10;99.90;;;;;;4990427;28;20117;-69
2022/06/07 07:05:07;;;;;;;6.97;3.00;;;17.20;99.90;;;;;;4990705;28;20121;-69
2022/06/07 07:07:33;;;;;;;6.20;2.75;;;17.10;99.90;;;;;;4990049;28;20042;-69
2022/06/07 07:09:58;;;;;;;8.38;2.30;;;16.90;99.90;;;;;;4991003;28;20495;-70
2022/06/07 07:12:24;;;;;;;4.70;2.28;;;16.80;99.90;;;;;;4992501;28;20500;-69
2022/06/07 07:14:50;;;;;;;5.05;2.35;;;16.90;99.90;;;;;;4993443;28;20037;-69
2022/06/07 07:17:15;;;;;;;5.75;3.10;;;16.80;99.90;;;;;;4988315;28;20894;-69
2022/06/07 07:19:41;;;;;;;8.23;2.97;;;16.80;99.90;;;;;;4990566;28;20038;-69
2022/06/07 07:22:07;;;;;;;7.82;2.97;;;16.70;99.90;;;;;;4993633;28;20081;-69
2022/06/07 07:24:32;;;;;;;10.18;3.00;;;16.70;99.90;;;;;;4986317;28;20040;-69
2022/06/07 07:27:00;;;;;;;6.05;2.65;;;16.60;99.90;;;;;;4989747;28;20031;-69
2022/06/07 07:29:26;;;;;;;6.45;3.22;;;16.70;99.90;;;;;;4990706;28;20403;-69
2022/06/07 07:31:52;;;;;;;6.32;3.30;;;16.80;99.90;;;;;;4990621;28;20628;-69
2022/06/07 07:34:18;;;;;;;5.85;3.20;;;16.80;99.90;;;;;;4989551;28;20041;-70
2022/06/07 07:36:47;;;;;;;5.05;3.10;;;16.90;99.90;;;;;;4993862;28;20038;-69
2022/06/07 07:39:13;;;;;;;8.50;3.13;;;17.00;99.90;;;;;;4992409;28;20069;-71
2022/06/07 07:41:40;;;;;;;6.20;3.20;;;16.90;99.90;;;;;;4987902;28;20553;-69
2022/06/07 07:44:11;;;;;;;7.78;3.55;;;17.00;99.90;;;;;;4989888;28;20034;-68
2022/06/07 07:46:38;;;;;;;7.15;2.97;;;17.10;99.90;;;;;;4989752;28;20084;-69
2022/06/07 07:49:05;;;;;;;6.65;3.17;;;17.10;99.90;;;;;;4990295;28;20485;-69
2022/06/07 07:51:37;;;;;;;6.43;3.28;;;17.30;99.90;;;;;;4989760;28;20065;-69
2022/06/07 07:54:05;;;;;;;4.68;2.72;;;17.40;99.90;;;;;;4992979;28;20037;-70
2022/06/07 07:56:31;;;;;;;6.05;3.05;;;17.60;99.90;;;;;;4987501;28;20034;-69
2022/06/07 07:58:57;;;;;;;5.80;2.35;;;17.70;99.90;;;;;;4986012;28;20038;-69
2022/06/07 08:01:25;;;;;;;6.05;2.53;;;17.80;99.90;;;;;;4991215;28;20043;-69
2022/06/07 08:03:54;;;;;;;5.53;2.45;;;17.80;99.90;;;;;;4988952;28;20064;-69
2022/06/07 08:06:22;;;;;;;4.25;2.45;;;17.90;99.90;;;;;;4988287;28;20490;-69
2022/06/07 08:08:50;;;;;;;6.45;2.42;;;17.80;99.90;;;;;;4988194;28;20092;-69
2022/06/07 08:11:18;;;;;;;7.30;2.65;;;17.60;99.90;;;;;;4991403;28;20041;-69
2022/06/07 08:13:44;;;;;;;5.25;3.03;;;17.60;99.90;;;;;;4988253;28;20038;-68
2022/06/07 08:16:10;;;;;;;5.53;2.47;;;17.60;99.90;;;;;;4987279;28;20152;-69
2022/06/07 08:18:37;;;;;;;8.23;3.65;;;17.60;99.90;;;;;;4993845;28;20038;-69
2022/06/07 08:21:08;;;;;;;6.00;2.97;;;17.50;99.90;;;;;;4993601;28;20042;-69
2022/06/07 08:23:36;;;;;;;13.25;3.67;;;17.60;99.90;;;;;;4989608;28;20064;-68
2022/06/07 08:26:04;;;;;;;9.82;2.90;;;17.70;99.90;;;;;;4990738;28;20038;-68
2022/06/07 08:28:30;;;;;;;6.75;2.97;;;17.70;99.90;;;;;;4993626;28;20046;-69
2022/06/07 08:30:56;;;;;;;4.03;2.28;;;17.80;99.90;;;;;;4989003;28;20346;-69
2022/06/07 08:37:33;;;;;;;6.68;3.17;;;17.90;99.90;;;;;;4993219;28;20057;-70
2022/06/07 08:39:03;;;;;;;3.67;2.40;;;17.80;99.90;;;;;;4991935;28;20049;-69
2022/06/07 08:41:34;;;;;;;4.43;2.47;;;17.80;99.90;;;;;;4991981;28;20041;-70
2022/06/07 08:44:07;;;;;;;;;;;17.70;99.90;;;;;;4992587;28;20034;-69
2022/06/07 08:46:36;;;;;;;6.20;2.70;;;17.70;99.90;;;;;;4996988;28;20366;-69
2022/06/07 08:49:02;;;;;;;6.15;2.55;;;17.50;99.90;;;;;;4997433;28;20085;-68
2022/06/07 08:51:38;;;;;;;4.88;2.58;;;17.60;99.90;;;;;;4992810;28;20038;-69
2022/06/07 08:54:14;;;;;;;5.80;3.08;;;17.60;99.90;;;;;;4992043;28;20506;-69
2022/06/07 08:56:39;;;;;;;4.28;2.53;;;17.60;99.90;;;;;;4997209;28;20061;-69
2022/06/07 08:59:15;;;;;;;4.90;2.70;;;17.60;99.90;;;;;;4995631;28;20050;-69
2022/06/07 09:01:53;;;;;;;3.97;2.40;;;17.60;99.90;;;;;;4991464;28;20453;-69
2022/06/07 09:04:27;;;;;;;5.00;2.50;;;17.70;99.90;;;;;;4993517;28;20045;-70
2022/06/07 09:06:57;;;;;;;4.93;2.78;;;17.80;99.90;;;;;;4996580;28;20506;-69
2022/06/07 09:12:09;;;;;;;5.95;3.00;;;17.80;99.90;;;;;;4991395;28;20568;-70
2022/06/07 09:12:17;;;;;;;6.00;2.65;;;17.60;99.90;;;;;;4991977;28;20058;-69
2022/06/07 09:15:00;;;;;;;4.60;2.60;;;17.70;99.90;;;;;;4991457;28;20045;-69
2022/06/07 09:17:39;;;;;;;5.28;3.17;;;17.70;99.90;;;;;;4995145;28;20034;-69
2022/06/07 09:20:15;;;;;;;8.45;3.58;;;17.80;99.90;;;;;;4995671;28;20526;-69
2022/06/07 09:22:50;;;;;;;6.57;2.80;;;17.80;99.90;;;;;;4987752;28;20104;-69
2022/06/07 09:25:28;;;;;;;3.92;2.28;;;18.10;99.90;;;;;;4992488;28;20398;-68
2022/06/07 09:27:56;;;;;;;6.47;2.58;;;18.60;99.90;;;;;;4994844;28;20188;-69
2022/06/07 09:30:32;;;;;;;4.10;2.40;;;19.10;99.90;;;;;;4986904;28;20562;-69
2022/06/07 09:33:28;;;;;;;4.28;2.30;;;19.60;99.90;;;;;;4987706;28;20061;-69
2022/06/07 09:35:59;;;;;;;5.32;2.10;;;19.90;99.90;;;;;;4988432;28;20433;-69
2022/06/07 09:38:34;;;;;;;3.33;2.15;;;20.20;99.90;;;;;;4994637;28;20041;-69
2022/06/07 09:41:36;;;;;;;5.50;1.95;;;20.40;99.90;;;;;;4992528;28;20030;-68
2022/06/07 09:44:11;;;;;;;6.15;2.13;;;20.50;99.90;;;;;;4990312;28;21535;-69
2022/06/07 09:46:37;;;;;;;5.70;2.58;;;20.80;99.90;;;;;;4986193;28;20038;-70
2022/06/07 09:49:04;;;;;;;3.88;2.15;;;20.90;99.90;;;;;;4993510;28;20050;-69
2022/06/07 09:51:39;;;;;;;5.53;2.15;;;21.00;99.90;;;;;;4990933;28;20045;-68
2022/06/07 09:54:16;;;;;;;4.82;2.10;;;20.80;99.90;;;;;;4988195;28;20089;-68
2022/06/07 09:57:11;;;;;;;8.07;2.72;;;20.80;99.90;;;;;;4989881;28;20438;-69
2022/06/07 10:00:21;;;;;;;8.38;3.58;;;20.60;99.90;;;;;;4992235;28;20132;-69
2022/06/07 10:03:01;;;;;;;4.72;2.03;;;20.40;99.90;;;;;;4992545;28;20570;-68
2022/06/07 10:05:41;;;;;;;4.43;2.70;;;20.30;99.90;;;;;;4987003;28;20493;-69
2022/06/07 10:08:42;;;;;;;4.00;2.13;;;20.40;99.90;;;;;;4990610;28;20380;-69
2022/06/07 10:11:21;;;;;;;5.43;2.33;;;20.60;99.90;;;;;;4986949;28;20706;-69
2022/06/07 10:14:04;;;;;;;4.53;2.33;;;20.70;99.90;;;;;;4986096;28;20134;-69
2022/06/07 10:16:47;;;;;;;3.50;1.80;;;20.80;99.90;;;;;;4989547;28;20524;-69
2022/06/07 10:19:50;;;;;;;3.55;2.30;;;20.80;99.90;;;;;;4988371;28;20112;-69
2022/06/07 10:22:23;;;;;;;6.63;2.47;;;20.60;99.90;;;;;;4984956;28;20137;-68
2022/06/07 10:25:04;;;;;;;3.55;2.30;;;20.40;99.90;;;;;;4988979;28;21223;-69
2022/06/07 10:27:51;;;;;;;6.20;2.83;;;20.30;99.90;;;;;;4991294;28;20054;-70
2022/06/07 10:30:26;;;;;;;4.47;2.17;;;20.00;99.90;;;;;;4991103;28;20072;-69
2022/06/07 10:33:03;;;;;;;3.50;2.47;;;19.70;99.90;;;;;;4985698;28;20038;-69
2022/06/07 10:35:43;;;;;;;6.18;2.70;;;19.50;99.90;;;;;;4979277;28;20034;-69
2022/06/07 10:38:28;;;;;;;4.28;2.33;;;19.40;99.90;;;;;;4993436;28;20042;-69
2022/06/07 10:41:00;;;;;;;5.03;3.05;;;19.10;99.90;;;;;;4989141;28;20097;-69
2022/06/07 10:43:39;;;;;;;5.80;2.78;;;19.10;99.90;;;;;;4984631;28;20129;-69
2022/06/07 10:46:10;;;;;;;4.53;2.33;;;19.00;99.90;;;;;;4988602;28;20046;-68
2022/06/07 10:48:46;;;;;;;7.15;2.92;;;18.90;99.90;;;;;;4992256;28;20030;-69
2022/06/07 10:54:03;;;;;;;8.45;2.80;;;19.20;99.90;;;;;;4987365;28;20054;-68
2022/06/07 10:56:36;;;;;;;5.03;2.33;;;19.40;99.90;;;;;;4986058;28;20141;-69
2022/06/07 10:59:10;;;;;;;7.13;3.47;;;19.60;99.90;;;;;;4991971;28;20038;-68
2022/06/07 11:01:41;;;;;;;7.10;2.58;;;19.70;99.90;;;;;;4987709;28;20503;-69
2022/06/07 11:10:33;;;;;;;4.53;2.35;;;19.40;99.90;;;;;;4987794;28;20061;-68
2022/06/07 11:13:22;;;;;;;4.97;2.50;;;19.30;99.90;;;;;;4992205;28;20027;-68
2022/06/07 11:15:57;;;;;;;3.83;2.25;;;19.10;99.90;;;;;;4991653;28;20796;-68
2022/06/07 11:18:26;;;;;;;4.03;2.00;;;19.10;99.90;;;;;;4988952;28;20529;-69
2022/06/07 11:21:01;;;;;;;3.75;2.30;;;19.00;99.90;;;;;;5002509;28;20490;-68
2022/06/07 11:23:55;;;;;;;7.22;2.72;;;18.90;99.90;;;;;;4991233;28;20069;-69
2022/06/07 11:26:21;;;;;;;5.45;2.45;;;18.90;99.90;;;;;;4992133;28;20053;-70
2022/06/07 11:28:53;;;;;;;3.95;2.40;;;19.00;99.90;;;;;;4990910;28;20030;-69
2022/06/07 11:31:37;;;;;;;4.95;2.97;;;19.00;99.90;;;;;;4989676;28;20050;-69
2022/06/07 11:34:23;;;;;;;5.28;2.75;;;19.00;99.90;;;;;;4989847;28;20449;-69
2022/06/07 11:37:10;;;;;;;4.68;2.80;;;19.00;99.90;;;;;;4986674;28;20868;-69
2022/06/07 11:39:38;;;;;;;4.80;2.60;;;19.10;99.90;;;;;;4983935;28;20045;-68
2022/06/07 11:42:06;;;;;;;6.53;3.00;;;19.10;99.90;;;;;;4986319;28;20057;-68
2022/06/07 11:44:37;;;;;;;7.60;3.15;;;19.10;99.90;;;;;;4988679;28;20080;-68
2022/06/07 11:47:11;;;;;;;7.13;3.17;;;19.20;99.90;;;;;;4990741;28;20042;-68
2022/06/07 11:49:49;;;;;;;4.70;2.33;;;19.30;99.90;;;;;;4987086;28;20068;-68
2022/06/07 11:52:15;;;;;;;6.03;2.78;;;19.40;99.90;;;;;;4985104;28;20154;-71
2022/06/07 11:54:45;;;;;;;9.23;2.70;;;19.60;99.90;;;;;;4989100;28;20030;-68
2022/06/07 11:57:22;;;;;;;3.90;1.90;;;19.80;99.90;;;;;;4984744;28;20053;-67
2022/06/07 11:59:54;;;;;;;4.40;2.15;;;20.00;99.90;;;;;;4983877;28;20034;-68
2022/06/07 12:02:26;;;;;;;5.78;2.20;;;20.10;99.90;;;;;;4989783;28;20138;-69
2022/06/07 12:05:06;;;;;;;6.40;2.42;;;20.10;99.90;;;;;;4988899;28;20026;-72
2022/06/07 12:07:50;;;;;;;4.47;2.42;;;20.30;99.90;;;;;;4987889;28;20062;-69
2022/06/07 12:10:18;;;;;;;8.07;2.17;;;20.40;99.90;;;;;;4984744;28;20587;-70
2022/06/07 12:13:09;;;;;;;5.45;2.42;;;20.40;99.90;;;;;;4988770;28;20403;-71
2022/06/07 12:15:48;;;;;;;4.05;2.28;;;20.40;99.90;;;;;;4996198;28;20046;-69
2022/06/07 12:18:26;;;;;;;5.05;2.30;;;20.40;99.90;;;;;;4995502;28;20129;-67
2022/06/07 12:21:21;;;;;;;4.88;2.72;;;20.50;99.90;;;;;;4995713;28;20526;-68
2022/06/07 12:23:59;;;;;;;4.75;2.70;;;20.60;99.90;;;;;;4983728;28;20044;-69
2022/06/07 12:26:35;;;;;;;5.70;2.88;;;20.60;99.90;;;;;;4995954;28;20147;-70
2022/06/07 12:29:17;;;;;;;5.90;2.95;;;20.90;99.90;;;;;;4994762;28;20038;-69
2022/06/07 12:31:49;;;;;;;10.55;2.97;;;21.00;99.90;;;;;;4991607;28;20185;-69
2022/06/07 12:34:20;;;;;;;7.18;3.10;;;21.00;99.90;;;;;;4990763;28;20565;-69
2022/06/07 12:36:49;;;;;;;;;;;21.20;99.90;;;;;;4994237;28;20038;-71
2022/06/07 12:39:16;;;;;;;9.43;3.10;;;21.00;99.90;;;;;;4994832;28;19922;-68
2022/06/07 12:41:58;;;;;;;4.85;2.67;;;20.80;99.90;;;;;;4990599;28;20123;-70
2022/06/07 12:44:36;;;;;;;5.38;2.83;;;20.90;99.90;;;;;;4989352;28;20078;-68
2022/06/07 12:47:03;;;;;;;4.95;2.72;;;20.90;99.90;;;;;;4995998;28;20034;-69
2022/06/07 12:49:33;;;;;;;4.65;2.53;;;20.90;99.90;;;;;;4990897;28;20506;-68
2022/06/07 12:52:05;;;;;;;4.38;2.55;;;20.90;99.90;;;;;;4988409;28;20036;-68
2022/06/07 12:54:35;;;;;;;3.80;2.20;;;20.90;99.90;;;;;;4993018;28;20034;-68
2022/06/07 12:57:12;;;;;;;4.13;2.40;;;21.00;99.90;;;;;;4993392;28;20379;-68
2022/06/07 13:00:00;;;;;;;3.97;2.58;;;21.00;99.90;;;;;;4993193;28;20482;-68
2022/06/07 13:02:34;;;;;;;5.72;2.83;;;21.00;99.90;;;;;;4989193;28;20549;-68
2022/06/07 13:05:10;;;;;;;4.35;2.72;;;21.00;99.90;;;;;;4990493;28;20273;-68
2022/06/07 13:07:45;;;;;;;7.53;2.70;;;20.90;99.90;;;;;;4992605;28;20049;-68
2022/06/07 13:10:14;;;;;;;4.90;3.03;;;21.00;99.90;;;;;;4991852;28;20042;-70
2022/06/07 13:12:44;;;;;;;4.07;2.22;;;21.00;99.90;;;;;;4988937;28;20058;-68
2022/06/07 13:15:22;;;;;;;4.75;2.25;;;21.20;99.90;;;;;;4993642;28;20031;-68
2022/06/07 13:18:04;;;;;;;3.25;2.30;;;21.20;99.90;;;;;;4993439;28;20117;-69
2022/06/07 13:20:35;;;;;;;4.10;2.75;;;21.30;99.90;;;;;;4991398;28;20036;-70
2022/06/07 13:23:25;;;;;;;3.65;2.38;;;21.30;99.90;;;;;;4987852;28;20093;-68
2022/06/07 13:25:54;;;;;;;5.30;3.05;;;21.20;99.90;;;;;;4989589;28;20031;-70